Time;durP1;ratioP1;P1;durP2;ratioP2;P2;SDS_P1;SDS_P2;PMS_P1;PMS_P2;Temp;Humidity;BMP_temperature;BMP_pressure;BME280_temperature;BME280_humidity;BME280_pressure;Samples;Min_cycle;Max_cycle;Signal;HPM_P1;HPM_P2
2021/10/26 00:01:37;;;;;;;23.80;13.83;;;7.10;96.60;;;;;;5077885;28;20279;-69
2021/10/26 00:04:04;;;;;;;27.77;13.50;;;7.10;96.70;;;;;;5086094;28;20571;-69
2021/10/26 00:06:31;;;;;;;25.90;14.50;;;7.10;96.90;;;;;;5089859;28;20205;-68
2021/10/26 00:08:58;;;;;;;23.10;12.87;;;7.10;96.90;;;;;;5084494;28;20317;-70
2021/10/26 00:11:25;;;;;;;20.60;13.47;;;7.10;97.00;;;;;;5089755;28;20208;-69
2021/10/26 00:13:53;;;;;;;24.77;12.47;;;7.10;97.00;;;;;;5075862;28;20761;-70
2021/10/26 00:16:20;;;;;;;25.40;13.23;;;7.10;97.10;;;;;;5075179;28;20211;-70
2021/10/26 00:18:47;;;;;;;25.33;13.67;;;7.10;97.20;;;;;;5086490;28;20209;-69
2021/10/26 00:21:14;;;;;;;21.20;12.33;;;7.10;97.20;;;;;;5083237;28;20213;-69
2021/10/26 00:23:41;;;;;;;23.27;13.13;;;7.00;97.30;;;;;;5095365;28;20205;-69
2021/10/26 00:26:08;;;;;;;21.87;12.90;;;7.00;97.30;;;;;;5084885;28;20209;-69
2021/10/26 00:28:36;;;;;;;23.87;13.07;;;7.00;97.30;;;;;;5076453;28;20308;-70
2021/10/26 00:31:04;;;;;;;22.73;13.17;;;7.00;97.30;;;;;;5083436;28;20219;-70
2021/10/26 00:33:31;;;;;;;26.27;13.83;;;7.00;97.30;;;;;;5079941;28;20205;-69
2021/10/26 00:35:58;;;;;;;23.63;12.67;;;7.00;97.40;;;;;;5092628;28;20267;-69
2021/10/26 00:38:25;;;;;;;22.37;12.70;;;7.00;97.40;;;;;;5095021;28;20205;-70
2021/10/26 00:40:52;;;;;;;25.53;13.43;;;7.00;97.50;;;;;;5075347;28;20567;-69
2021/10/26 00:43:19;;;;;;;20.30;12.70;;;6.90;97.40;;;;;;5075299;28;20205;-69
2021/10/26 00:45:46;;;;;;;22.17;13.40;;;6.90;97.50;;;;;;5092986;28;20219;-69
2021/10/26 00:48:14;;;;;;;20.37;12.50;;;6.90;97.60;;;;;;5091328;28;20205;-69
2021/10/26 00:50:41;;;;;;;22.60;13.13;;;6.90;97.60;;;;;;5088875;28;20681;-69
2021/10/26 00:53:08;;;;;;;20.87;12.77;;;6.80;97.70;;;;;;5075273;28;20212;-68
2021/10/26 00:55:35;;;;;;;19.50;11.50;;;6.80;97.80;;;;;;5073808;28;20206;-69
2021/10/26 00:58:03;;;;;;;19.77;12.20;;;6.80;97.90;;;;;;5077710;28;20627;-70
2021/10/26 01:00:30;;;;;;;20.17;11.20;;;6.80;97.90;;;;;;5076640;28;20236;-69
2021/10/26 01:02:56;;;;;;;21.73;12.27;;;6.80;98.00;;;;;;5077978;28;20209;-70
2021/10/26 01:05:26;;;;;;;22.00;12.43;;;6.80;98.00;;;;;;5076005;28;20209;-69
2021/10/26 01:07:53;;;;;;;18.50;11.67;;;6.90;98.00;;;;;;5079458;28;20293;-69
2021/10/26 01:10:20;;;;;;;17.50;11.47;;;6.80;98.00;;;;;;5080952;28;20308;-69
2021/10/26 01:12:47;;;;;;;18.33;11.53;;;6.80;98.00;;;;;;5075874;28;20202;-69
2021/10/26 01:15:14;;;;;;;20.77;12.97;;;6.80;98.10;;;;;;5085072;28;20212;-69
2021/10/26 01:17:41;;;;;;;22.77;11.93;;;6.80;98.10;;;;;;5080974;28;20290;-69
2021/10/26 01:20:11;;;;;;;18.90;11.73;;;6.80;98.10;;;;;;5087294;28;20570;-69
2021/10/26 01:22:40;;;;;;;23.83;11.90;;;6.80;98.20;;;;;;5090577;28;20253;-70
2021/10/26 01:25:08;;;;;;;18.50;11.37;;;6.80;98.20;;;;;;5077383;28;20677;-68
2021/10/26 01:27:36;;;;;;;19.87;11.47;;;6.80;98.20;;;;;;5076975;28;20205;-69
2021/10/26 01:30:03;;;;;;;20.60;11.43;;;6.80;98.20;;;;;;5090763;28;20337;-69
2021/10/26 01:32:30;;;;;;;20.60;11.47;;;6.80;98.20;;;;;;5077423;28;20269;-69
2021/10/26 01:34:57;;;;;;;20.47;11.03;;;6.80;98.20;;;;;;5080143;28;20314;-69
2021/10/26 01:37:25;;;;;;;20.77;11.47;;;6.80;98.20;;;;;;5082000;28;20482;-69
2021/10/26 01:39:52;;;;;;;22.87;10.63;;;6.80;98.20;;;;;;5075163;28;20207;-69
2021/10/26 01:42:20;;;;;;;19.97;10.80;;;6.80;98.10;;;;;;5074407;28;20236;-69
2021/10/26 01:44:48;;;;;;;19.80;12.00;;;6.80;98.20;;;;;;5075422;28;20239;-70
2021/10/26 01:47:15;;;;;;;17.57;11.20;;;6.70;98.20;;;;;;5074386;28;20560;-69
2021/10/26 01:49:42;;;;;;;20.93;11.77;;;6.70;98.20;;;;;;5074864;28;20280;-69
2021/10/26 01:52:09;;;;;;;20.83;11.47;;;6.70;98.20;;;;;;5083519;28;20233;-71
2021/10/26 01:54:38;;;;;;;21.13;10.87;;;6.70;98.20;;;;;;5088464;28;20572;-69
2021/10/26 01:57:06;;;;;;;20.57;11.13;;;6.70;98.20;;;;;;5082541;28;20241;-69
2021/10/26 01:59:34;;;;;;;19.43;11.03;;;6.70;98.30;;;;;;5075097;28;20801;-69
2021/10/26 02:02:01;;;;;;;19.80;10.30;;;6.70;98.40;;;;;;5086251;28;20303;-68
2021/10/26 02:04:29;;;;;;;22.47;11.33;;;6.60;98.40;;;;;;5079203;28;20219;-69
2021/10/26 02:06:56;;;;;;;19.30;10.87;;;6.70;98.50;;;;;;5075453;28;20209;-76
2021/10/26 02:09:22;;;;;;;19.07;10.40;;;6.60;98.40;;;;;;5089812;28;20220;-69
2021/10/26 02:11:51;;;;;;;17.20;10.70;;;6.70;98.50;;;;;;5076206;28;20201;-68
2021/10/26 02:14:17;;;;;;;18.43;10.60;;;6.60;98.50;;;;;;5073340;28;20205;-68
2021/10/26 02:16:44;;;;;;;18.17;9.63;;;6.60;98.50;;;;;;5074045;28;20281;-68
2021/10/26 02:19:11;;;;;;;16.93;10.37;;;6.70;98.60;;;;;;5078278;28;20824;-69
2021/10/26 02:21:38;;;;;;;22.37;10.80;;;6.60;98.70;;;;;;5076318;28;20201;-68
2021/10/26 02:24:05;;;;;;;20.40;10.50;;;6.60;98.60;;;;;;5078376;28;20623;-69
2021/10/26 02:26:32;;;;;;;20.53;10.80;;;6.60;98.60;;;;;;5079651;28;20689;-69
2021/10/26 02:29:00;;;;;;;18.53;10.97;;;6.60;98.80;;;;;;5073706;28;20213;-69
2021/10/26 02:31:27;;;;;;;17.57;10.10;;;6.50;98.70;;;;;;5074638;28;20340;-68
2021/10/26 02:33:54;;;;;;;19.63;10.50;;;6.50;98.80;;;;;;5073601;28;20558;-70
2021/10/26 02:36:21;;;;;;;19.10;11.20;;;6.50;98.80;;;;;;5073517;28;20300;-69
2021/10/26 02:38:48;;;;;;;20.23;10.43;;;6.60;98.90;;;;;;5073598;28;20300;-69
2021/10/26 02:41:15;;;;;;;18.70;10.77;;;6.60;99.00;;;;;;5076021;28;20229;-70
2021/10/26 02:43:42;;;;;;;17.10;9.93;;;6.50;99.00;;;;;;5090717;28;20675;-69
2021/10/26 02:46:10;;;;;;;24.30;10.37;;;6.50;98.90;;;;;;5073711;28;20232;-69
2021/10/26 02:48:37;;;;;;;21.27;11.03;;;6.50;98.90;;;;;;5078044;28;20288;-69
2021/10/26 02:51:04;;;;;;;18.27;10.30;;;6.50;99.00;;;;;;5081845;28;20584;-69
2021/10/26 02:53:31;;;;;;;14.83;9.57;;;6.40;99.00;;;;;;5073781;28;20223;-70
2021/10/26 02:55:57;;;;;;;19.97;10.33;;;6.40;99.10;;;;;;5079224;28;20235;-68
2021/10/26 02:58:24;;;;;;;17.53;9.77;;;6.40;99.20;;;;;;5078009;28;20321;-68
2021/10/26 03:00:51;;;;;;;19.80;10.63;;;6.40;99.20;;;;;;5085202;28;20240;-69
2021/10/26 03:03:20;;;;;;;20.53;10.40;;;6.40;99.20;;;;;;5073796;28;20292;-69
2021/10/26 03:05:47;;;;;;;16.97;10.67;;;6.30;99.30;;;;;;5074951;28;20215;-69
2021/10/26 03:08:14;;;;;;;14.30;8.67;;;6.30;99.30;;;;;;5085077;28;20197;-68
2021/10/26 03:10:41;;;;;;;18.67;10.60;;;6.30;99.40;;;;;;5081225;28;20220;-69
2021/10/26 03:13:08;;;;;;;18.30;9.97;;;6.30;99.40;;;;;;5089742;28;20205;-68
2021/10/26 03:15:35;;;;;;;14.87;9.33;;;6.30;99.40;;;;;;5088580;28;20218;-69
2021/10/26 03:18:03;;;;;;;17.47;9.93;;;6.30;99.40;;;;;;5090529;28;20227;-69
2021/10/26 03:20:31;;;;;;;15.07;9.90;;;6.30;99.40;;;;;;5075089;28;20207;-69
2021/10/26 03:22:58;;;;;;;16.57;9.80;;;6.20;99.40;;;;;;5074675;28;20223;-70
2021/10/26 03:25:25;;;;;;;17.90;9.67;;;6.30;99.40;;;;;;5091657;28;20712;-69
2021/10/26 03:27:52;;;;;;;17.80;9.67;;;6.30;99.40;;;;;;5093654;28;20212;-70
2021/10/26 03:30:20;;;;;;;16.07;9.63;;;6.20;99.40;;;;;;5078516;28;20221;-69
2021/10/26 03:32:47;;;;;;;17.00;9.63;;;6.20;99.50;;;;;;5083399;28;20215;-69
2021/10/26 03:35:13;;;;;;;17.90;10.07;;;6.20;99.60;;;;;;5096241;28;20222;-69
2021/10/26 03:37:42;;;;;;;17.33;9.43;;;6.20;99.80;;;;;;5081716;28;20295;-69
2021/10/26 03:40:10;;;;;;;21.83;9.83;;;6.20;99.80;;;;;;5088297;28;20315;-70
2021/10/26 03:42:37;;;;;;;16.97;10.03;;;6.20;99.80;;;;;;5077283;28;20209;-69
2021/10/26 03:45:06;;;;;;;16.67;9.73;;;6.20;99.90;;;;;;5083653;28;20196;-70
2021/10/26 03:47:33;;;;;;;20.40;10.10;;;6.20;99.90;;;;;;5085112;28;20196;-70
2021/10/26 03:49:59;;;;;;;16.90;9.17;;;6.20;99.90;;;;;;5090112;28;20260;-70
2021/10/26 03:52:26;;;;;;;19.57;9.93;;;6.20;99.90;;;;;;5082146;28;20244;-69
2021/10/26 03:54:56;;;;;;;16.23;9.00;;;6.20;99.90;;;;;;5091993;28;20216;-68
2021/10/26 03:57:23;;;;;;;16.17;9.17;;;6.20;99.90;;;;;;5094991;28;20659;-68
2021/10/26 03:59:50;;;;;;;16.40;8.97;;;6.10;99.90;;;;;;5069428;28;20496;-69
2021/10/26 04:02:23;;;;;;;15.83;8.50;;;6.20;99.90;;;;;;5089194;28;20201;-69
2021/10/26 04:04:52;;;;;;;16.03;8.97;;;6.10;99.90;;;;;;5083002;28;20536;-70
2021/10/26 04:07:20;;;;;;;17.07;8.50;;;6.10;99.90;;;;;;5094998;28;20657;-68
2021/10/26 04:09:50;;;;;;;14.00;8.50;;;6.10;99.90;;;;;;5081366;28;20549;-69
2021/10/26 04:12:24;;;;;;;18.17;9.90;;;6.10;99.90;;;;;;5075916;28;20296;-68
2021/10/26 04:14:52;;;;;;;15.37;8.73;;;6.10;99.90;;;;;;5092461;28;20268;-69
2021/10/26 04:17:20;;;;;;;13.13;8.33;;;6.20;99.90;;;;;;5085334;28;20206;-68
2021/10/26 04:19:48;;;;;;;13.13;8.57;;;6.10;99.90;;;;;;5087572;28;20212;-70
2021/10/26 04:22:16;;;;;;;16.47;8.97;;;6.20;99.90;;;;;;5088953;28;20212;-68
2021/10/26 04:24:43;;;;;;;17.47;8.13;;;6.20;99.90;;;;;;5081435;28;20926;-68
2021/10/26 04:27:11;;;;;;;16.40;8.43;;;6.10;99.90;;;;;;5075837;28;20705;-68
2021/10/26 04:29:42;;;;;;;14.37;9.23;;;6.20;99.90;;;;;;5075772;28;20219;-69
2021/10/26 04:32:10;;;;;;;18.60;9.93;;;6.20;99.90;;;;;;5083345;28;20205;-69
2021/10/26 04:34:38;;;;;;;12.57;8.07;;;6.20;99.90;;;;;;5083783;28;20205;-69
2021/10/26 04:37:08;;;;;;;15.23;9.40;;;6.20;99.90;;;;;;5082571;28;20201;-69
2021/10/26 04:39:36;;;;;;;17.37;8.73;;;6.20;99.90;;;;;;5093735;28;20220;-69
2021/10/26 04:42:03;;;;;;;13.77;9.00;;;6.20;99.90;;;;;;5092572;28;20632;-68
2021/10/26 04:44:30;;;;;;;14.27;8.83;;;6.20;99.90;;;;;;5083504;28;20201;-69
2021/10/26 04:46:59;;;;;;;15.27;8.43;;;6.20;99.90;;;;;;5081450;28;20416;-69
2021/10/26 04:49:25;;;;;;;13.47;8.63;;;6.20;99.90;;;;;;5090194;28;20215;-69
2021/10/26 04:51:52;;;;;;;13.37;8.37;;;6.20;99.90;;;;;;5088687;28;20227;-69
2021/10/26 04:54:19;;;;;;;14.77;8.67;;;6.30;99.90;;;;;;5079828;28;20321;-68
2021/10/26 04:56:46;;;;;;;14.57;8.77;;;6.30;99.90;;;;;;5081246;28;20327;-69
2021/10/26 04:59:13;;;;;;;15.40;9.00;;;6.30;99.90;;;;;;5095237;28;20243;-69
2021/10/26 05:01:40;;;;;;;17.13;8.93;;;6.30;99.90;;;;;;5081515;28;20194;-69
2021/10/26 05:04:08;;;;;;;13.57;8.20;;;6.20;99.90;;;;;;5075676;28;20258;-69
2021/10/26 05:06:35;;;;;;;12.70;7.83;;;6.30;99.90;;;;;;5092465;28;20205;-69
2021/10/26 05:09:03;;;;;;;14.10;8.13;;;6.20;99.90;;;;;;5088980;28;20243;-69
2021/10/26 05:11:30;;;;;;;13.77;8.77;;;6.30;99.90;;;;;;5077556;28;20228;-70
2021/10/26 05:13:57;;;;;;;13.97;8.63;;;6.30;99.90;;;;;;5083857;28;20724;-70
2021/10/26 05:16:25;;;;;;;16.17;9.00;;;6.30;99.90;;;;;;5086234;28;20292;-70
2021/10/26 05:18:56;;;;;;;18.00;9.60;;;6.30;99.90;;;;;;5066833;28;20645;-68
2021/10/26 05:21:26;;;;;;;13.33;8.63;;;6.30;99.90;;;;;;5089457;28;20616;-70
2021/10/26 05:23:53;;;;;;;16.70;9.17;;;6.30;99.90;;;;;;5075219;28;20205;-71
2021/10/26 05:26:21;;;;;;;13.83;8.33;;;6.30;99.90;;;;;;5077952;28;20204;-70
2021/10/26 05:28:48;;;;;;;15.63;9.20;;;6.30;99.90;;;;;;5074107;28;20240;-68
2021/10/26 05:31:16;;;;;;;14.63;9.07;;;6.30;99.90;;;;;;5087445;28;20288;-68
2021/10/26 05:33:43;;;;;;;13.60;8.67;;;6.30;99.90;;;;;;5075850;28;20273;-69
2021/10/26 05:36:11;;;;;;;16.07;9.70;;;6.30;99.90;;;;;;5083745;28;20647;-69
2021/10/26 05:38:39;;;;;;;14.60;9.23;;;6.20;99.90;;;;;;5091654;28;20207;-69
2021/10/26 05:41:07;;;;;;;16.50;9.20;;;6.20;99.90;;;;;;5073172;28;20205;-68
2021/10/26 05:43:34;;;;;;;15.57;8.60;;;6.20;99.90;;;;;;5074700;28;20239;-69
2021/10/26 05:46:01;;;;;;;17.97;10.00;;;6.20;99.90;;;;;;5081506;28;20300;-70
2021/10/26 05:48:29;;;;;;;15.43;9.30;;;6.20;99.90;;;;;;5094563;28;20235;-69
2021/10/26 05:50:56;;;;;;;17.70;9.67;;;6.30;99.90;;;;;;5081059;28;20248;-70
2021/10/26 05:53:23;;;;;;;16.43;10.20;;;6.30;99.90;;;;;;5074506;28;20198;-69
2021/10/26 05:55:52;;;;;;;13.97;9.20;;;6.40;99.90;;;;;;5087080;28;20268;-69
2021/10/26 05:58:18;;;;;;;17.87;9.03;;;6.40;99.90;;;;;;5077200;28;21080;-70
2021/10/26 06:00:46;;;;;;;15.57;8.77;;;6.40;99.90;;;;;;5082657;28;20244;-68
2021/10/26 06:03:13;;;;;;;16.33;9.23;;;6.40;99.90;;;;;;5088023;28;20209;-68
2021/10/26 06:05:40;;;;;;;15.43;9.00;;;6.40;99.90;;;;;;5075538;28;20205;-70
2021/10/26 06:08:07;;;;;;;17.40;9.13;;;6.40;99.90;;;;;;5084092;28;20209;-70
2021/10/26 06:10:38;;;;;;;17.30;9.63;;;6.40;99.90;;;;;;5082409;28;20299;-70
2021/10/26 06:13:10;;;;;;;18.57;9.37;;;6.60;99.90;;;;;;5076786;28;20662;-69
2021/10/26 06:15:36;;;;;;;18.53;9.47;;;6.50;99.90;;;;;;5082998;28;20289;-69
2021/10/26 06:18:03;;;;;;;13.53;9.33;;;6.50;99.90;;;;;;5089697;28;20197;-73
2021/10/26 06:20:31;;;;;;;19.53;10.33;;;6.50;99.90;;;;;;5090128;28;20289;-73
2021/10/26 06:22:58;;;;;;;17.80;10.17;;;6.60;99.90;;;;;;5082771;28;20213;-72
2021/10/26 06:25:27;;;;;;;18.30;10.07;;;6.60;99.90;;;;;;5084642;28;20215;-72
2021/10/26 06:27:54;;;;;;;18.23;9.17;;;6.70;99.90;;;;;;5080364;28;20554;-73
2021/10/26 06:30:22;;;;;;;16.00;9.43;;;6.80;99.90;;;;;;5089937;28;20287;-71
2021/10/26 06:32:49;;;;;;;15.27;9.33;;;6.80;99.90;;;;;;5091880;28;20243;-73
2021/10/26 06:35:16;;;;;;;16.63;9.03;;;6.90;99.90;;;;;;5089575;28;20220;-75
2021/10/26 06:37:44;;;;;;;15.93;9.00;;;7.00;99.90;;;;;;5091107;28;20599;-73
2021/10/26 06:40:12;;;;;;;14.33;9.63;;;7.00;99.90;;;;;;5083359;28;20668;-73
2021/10/26 06:42:39;;;;;;;18.30;10.07;;;7.10;99.90;;;;;;5092329;28;20212;-75
2021/10/26 06:45:09;;;;;;;16.23;9.20;;;7.20;99.90;;;;;;5081225;28;20247;-74
2021/10/26 06:47:37;;;;;;;15.97;9.27;;;7.30;99.90;;;;;;5080558;28;20277;-72
2021/10/26 06:50:06;;;;;;;20.67;9.23;;;7.40;99.90;;;;;;5085592;28;20209;-73
2021/10/26 06:52:34;;;;;;;15.27;9.00;;;7.60;99.90;;;;;;5076953;28;20588;-73
2021/10/26 06:55:01;;;;;;;17.93;8.93;;;7.70;99.90;;;;;;5076321;28;20292;-73
2021/10/26 06:57:29;;;;;;;15.80;8.90;;;7.70;99.90;;;;;;5089846;28;20228;-70
2021/10/26 06:59:57;;;;;;;15.57;9.07;;;7.80;99.90;;;;;;5081376;28;20265;-72
2021/10/26 07:02:24;;;;;;;19.07;9.37;;;7.80;99.90;;;;;;5084293;28;20200;-71
2021/10/26 07:04:53;;;;;;;22.27;9.40;;;7.80;99.90;;;;;;5083587;28;20205;-73
2021/10/26 07:07:20;;;;;;;20.17;10.37;;;7.80;99.90;;;;;;5091883;28;20677;-69
2021/10/26 07:09:47;;;;;;;17.17;8.83;;;7.90;99.90;;;;;;5095274;28;20215;-70
2021/10/26 07:12:14;;;;;;;17.67;9.87;;;7.90;99.90;;;;;;5087150;28;20228;-71
2021/10/26 07:14:41;;;;;;;16.53;9.37;;;8.10;99.90;;;;;;5086642;28;20655;-72
2021/10/26 07:17:08;;;;;;;15.73;9.73;;;8.10;99.90;;;;;;5093993;28;20591;-70
2021/10/26 07:19:37;;;;;;;15.67;9.33;;;8.30;99.90;;;;;;5086244;28;20213;-69
2021/10/26 07:22:05;;;;;;;16.53;10.20;;;8.40;99.90;;;;;;5087321;28;20204;-71
2021/10/26 07:24:32;;;;;;;19.93;9.47;;;8.60;99.90;;;;;;5087280;28;20692;-69
2021/10/26 07:27:00;;;;;;;15.53;9.27;;;8.80;99.80;;;;;;5095502;28;20200;-68
2021/10/26 07:29:26;;;;;;;17.17;9.20;;;8.80;99.40;;;;;;5090679;28;20213;-66
2021/10/26 07:31:55;;;;;;;18.63;9.63;;;8.90;99.30;;;;;;5094791;28;20225;-67
2021/10/26 07:34:22;;;;;;;18.30;10.63;;;9.00;99.10;;;;;;5090087;28;20278;-69
2021/10/26 07:36:52;;;;;;;20.13;9.47;;;9.20;99.10;;;;;;5089338;28;20209;-67
2021/10/26 07:39:45;;;;;;;13.07;8.97;;;9.30;98.90;;;;;;5079348;28;20212;-69
2021/10/26 07:42:12;;;;;;;16.57;9.27;;;9.60;98.60;;;;;;5091379;28;20196;-69
2021/10/26 07:44:39;;;;;;;18.87;9.83;;;9.90;98.20;;;;;;5078040;28;20198;-70
2021/10/26 07:47:06;;;;;;;16.83;9.23;;;10.00;97.40;;;;;;5090876;28;20241;-69
2021/10/26 07:49:33;;;;;;;17.33;9.67;;;10.20;96.90;;;;;;5093818;28;20240;-67
2021/10/26 07:52:01;;;;;;;16.63;9.67;;;10.30;96.50;;;;;;5081589;28;20823;-67
2021/10/26 07:54:29;;;;;;;13.90;8.77;;;10.40;96.10;;;;;;5097202;28;20209;-69
2021/10/26 07:56:57;;;;;;;14.23;8.70;;;10.50;95.80;;;;;;5090645;28;20253;-70
2021/10/26 07:59:24;;;;;;;15.87;9.77;;;10.70;95.60;;;;;;5084260;28;20234;-70
2021/10/26 08:01:51;;;;;;;17.03;9.67;;;10.80;95.30;;;;;;5077647;28;20677;-69
2021/10/26 08:04:18;;;;;;;15.53;10.50;;;10.90;94.90;;;;;;5076573;28;20213;-69
2021/10/26 08:06:46;;;;;;;16.70;9.30;;;11.10;94.80;;;;;;5075499;28;20727;-66
2021/10/26 08:09:14;;;;;;;18.33;10.03;;;11.20;94.80;;;;;;5080373;28;20220;-70
2021/10/26 08:11:43;;;;;;;18.97;10.40;;;11.40;94.40;;;;;;5095759;28;20249;-71
2021/10/26 08:14:10;;;;;;;15.17;9.17;;;11.60;94.00;;;;;;5086335;28;20208;-70
2021/10/26 08:16:37;;;;;;;16.43;9.20;;;11.70;93.80;;;;;;5079283;28;20216;-70
2021/10/26 08:19:04;;;;;;;17.47;9.33;;;12.00;93.80;;;;;;5073468;28;20213;-70
2021/10/26 08:21:32;;;;;;;18.33;8.77;;;12.20;93.30;;;;;;5083866;28;20626;-69
2021/10/26 08:24:00;;;;;;;14.50;8.70;;;12.60;92.90;;;;;;5081393;28;20208;-70
2021/10/26 08:26:28;;;;;;;11.80;8.10;;;12.70;92.20;;;;;;5080725;28;20233;-71
2021/10/26 08:29:04;;;;;;;12.53;7.63;;;12.90;92.00;;;;;;5088954;28;20253;-71
2021/10/26 08:31:38;;;;;;;11.93;8.23;;;13.10;91.30;;;;;;5091248;28;20216;-71
2021/10/26 08:34:09;;;;;;;12.33;7.90;;;13.30;91.10;;;;;;5088006;28;20204;-71
2021/10/26 08:36:36;;;;;;;11.90;7.30;;;13.70;90.50;;;;;;5081754;28;20572;-71
2021/10/26 08:39:05;;;;;;;13.23;7.37;;;13.90;88.90;;;;;;5076739;28;20244;-74
2021/10/26 08:41:34;;;;;;;11.00;6.97;;;14.20;88.80;;;;;;5088656;28;20201;-74
2021/10/26 08:44:03;;;;;;;13.47;7.60;;;14.60;87.80;;;;;;5089238;28;20279;-75
2021/10/26 08:46:31;;;;;;;16.33;7.50;;;15.20;86.70;;;;;;5082300;28;20200;-74
2021/10/26 08:48:59;;;;;;;12.07;7.70;;;16.10;84.40;;;;;;5081699;28;20713;-73
2021/10/26 08:51:26;;;;;;;10.87;7.07;;;17.00;78.00;;;;;;5080189;28;20796;-74
2021/10/26 08:53:54;;;;;;;12.70;7.80;;;17.70;73.80;;;;;;5083281;28;20209;-74
2021/10/26 08:56:22;;;;;;;12.52;7.60;;;18.20;70.00;;;;;;5073678;28;20555;-72
2021/10/26 08:58:50;;;;;;;13.10;7.70;;;18.80;68.30;;;;;;5073824;28;20209;-73
2021/10/26 09:01:18;;;;;;;10.50;7.38;;;19.40;63.20;;;;;;5086414;28;20211;-73
2021/10/26 09:03:45;;;;;;;11.43;7.40;;;19.60;60.60;;;;;;5092105;28;20213;-74
2021/10/26 09:06:23;;;;;;;10.57;7.05;;;19.80;59.10;;;;;;5089169;28;20201;-74
2021/10/26 09:08:53;;;;;;;10.73;6.80;;;19.70;57.40;;;;;;5082894;28;20747;-73
2021/10/26 09:11:24;;;;;;;11.10;6.93;;;19.60;57.20;;;;;;5086058;28;20210;-72
2021/10/26 09:16:50;;;;;;;10.68;6.63;;;19.70;57.30;;;;;;5089237;28;20672;-74
2021/10/26 09:19:20;;;;;;;12.82;6.65;;;19.90;56.40;;;;;;5079332;28;20193;-72
2021/10/26 09:21:56;;;;;;;9.38;7.13;;;20.40;55.80;;;;;;5075882;28;20291;-71
2021/10/26 09:24:23;;;;;;;9.40;7.45;;;20.60;54.30;;;;;;5087328;28;20230;-70
2021/10/26 09:26:53;;;;;;;12.95;6.70;;;20.70;55.00;;;;;;5090575;28;20208;-71
2021/10/26 09:29:37;;;;;;;11.10;6.38;;;21.30;53.40;;;;;;5079791;28;20200;-68
2021/10/26 09:32:07;;;;;;;8.90;6.10;;;21.90;51.20;;;;;;5080040;28;20303;-68
2021/10/26 09:34:40;;;;;;;8.63;6.35;;;22.70;49.90;;;;;;5080782;28;20577;-72
2021/10/26 09:37:08;;;;;;;8.40;5.88;;;23.30;48.60;;;;;;5087455;28;20250;-71
2021/10/26 09:39:35;;;;;;;12.85;6.30;;;24.00;47.80;;;;;;5074251;28;20237;-71
2021/10/26 09:42:11;;;;;;;6.72;5.97;;;24.90;46.00;;;;;;5075449;28;20201;-72
2021/10/26 09:44:48;;;;;;;11.23;6.97;;;25.60;44.10;;;;;;5079106;28;20699;-73
2021/10/26 09:47:21;;;;;;;9.70;6.93;;;25.60;43.40;;;;;;5087128;28;20215;-71
2021/10/26 09:49:56;;;;;;;14.65;5.95;;;25.30;42.90;;;;;;5088517;28;20288;-72
2021/10/26 09:52:25;;;;;;;10.82;6.70;;;25.00;43.30;;;;;;5077983;28;20239;-72
2021/10/26 09:55:13;;;;;;;9.98;6.70;;;24.60;42.30;;;;;;5078978;28;20689;-72
2021/10/26 09:57:42;;;;;;;8.27;5.93;;;24.40;43.80;;;;;;5081801;28;20225;-72
2021/10/26 10:00:10;;;;;;;10.73;6.78;;;24.80;43.40;;;;;;5082781;28;20245;-72
2021/10/26 10:02:40;;;;;;;8.55;6.32;;;24.90;42.20;;;;;;5083752;28;20192;-72
2021/10/26 10:05:09;;;;;;;9.82;6.82;;;24.70;41.90;;;;;;5080002;28;20694;-72
2021/10/26 10:07:38;;;;;;;8.93;5.93;;;24.20;42.30;;;;;;5080916;28;20192;-71
2021/10/26 10:10:09;;;;;;;10.25;5.60;;;23.70;43.10;;;;;;5084539;28;20204;-69
2021/10/26 10:12:37;;;;;;;8.32;6.05;;;23.40;43.60;;;;;;5091988;28;20205;-68
2021/10/26 10:15:06;;;;;;;12.65;6.07;;;23.40;43.60;;;;;;5087856;28;20201;-72
2021/10/26 10:17:35;;;;;;;9.10;6.35;;;23.70;44.00;;;;;;5091458;28;20206;-72
2021/10/26 10:20:06;;;;;;;8.30;5.85;;;24.40;43.50;;;;;;5087661;28;20251;-73
2021/10/26 10:22:33;;;;;;;9.63;6.00;;;25.40;41.70;;;;;;5087294;28;21625;-72
2021/10/26 10:25:03;;;;;;;6.97;5.50;;;26.20;40.40;;;;;;5078360;28;20232;-72
2021/10/26 10:27:31;;;;;;;7.93;5.70;;;26.50;39.70;;;;;;5080246;28;20197;-72
2021/10/26 10:29:59;;;;;;;6.82;5.72;;;27.30;39.50;;;;;;5085387;28;20211;-72
2021/10/26 10:32:29;;;;;;;7.28;5.85;;;28.40;38.00;;;;;;5090743;28;20736;-71
2021/10/26 10:34:57;;;;;;;8.13;5.45;;;28.90;36.50;;;;;;5093093;28;20215;-72
2021/10/26 10:37:27;;;;;;;11.10;6.10;;;28.90;35.90;;;;;;5084605;28;20268;-72
2021/10/26 10:39:56;;;;;;;8.60;5.60;;;28.80;35.80;;;;;;5087405;28;20205;-71
2021/10/26 10:42:25;;;;;;;8.38;5.20;;;28.30;35.90;;;;;;5089088;28;20208;-71
2021/10/26 10:44:54;;;;;;;9.07;5.45;;;28.00;36.30;;;;;;5091146;28;20649;-70
2021/10/26 10:47:37;;;;;;;8.13;5.85;;;27.60;36.30;;;;;;5091162;28;20288;-71
2021/10/26 10:50:05;;;;;;;10.02;5.63;;;27.00;36.70;;;;;;5074281;28;20212;-73
2021/10/26 10:52:35;;;;;;;9.77;5.63;;;26.30;37.00;;;;;;5084684;28;20656;-71
2021/10/26 10:55:22;;;;;;;8.73;5.72;;;25.50;38.10;;;;;;5083488;28;20212;-69
2021/10/26 10:57:49;;;;;;;9.13;5.55;;;24.70;39.30;;;;;;5075369;28;20225;-70
2021/10/26 11:00:22;;;;;;;8.95;5.50;;;23.90;40.00;;;;;;5083182;28;20403;-70
2021/10/26 11:02:50;;;;;;;7.50;5.50;;;23.20;41.00;;;;;;5091540;28;20250;-69
2021/10/26 11:05:40;;;;;;;9.55;5.53;;;22.60;41.80;;;;;;5091318;28;20268;-70
2021/10/26 11:08:09;;;;;;;10.23;5.45;;;22.30;42.90;;;;;;5078769;28;20266;-70
2021/10/26 11:11:01;;;;;;;8.75;5.78;;;22.30;43.10;;;;;;5091539;28;20200;-70
2021/10/26 11:13:29;;;;;;;12.30;5.97;;;22.30;43.30;;;;;;5090729;28;20251;-69
2021/10/26 11:15:59;;;;;;;8.68;5.95;;;22.70;43.30;;;;;;5091224;28;20315;-70
2021/10/26 11:18:38;;;;;;;8.43;5.65;;;23.00;43.00;;;;;;5076377;28;20216;-72
2021/10/26 11:21:06;;;;;;;10.95;6.50;;;23.80;43.00;;;;;;5088928;28;20720;-70
2021/10/26 11:23:42;;;;;;;9.50;6.30;;;24.90;42.20;;;;;;5091617;28;20299;-71
2021/10/26 11:26:12;;;;;;;8.23;6.18;;;26.20;39.40;;;;;;5093214;28;20209;-70
2021/10/26 11:28:57;;;;;;;11.85;5.63;;;26.70;38.20;;;;;;5090280;28;20205;-70
2021/10/26 11:31:27;;;;;;;9.35;5.78;;;27.00;38.50;;;;;;5081784;28;20802;-70
2021/10/26 11:34:13;;;;;;;10.55;6.45;;;27.20;37.20;;;;;;5068325;28;20312;-72
2021/10/26 11:36:40;;;;;;;8.23;6.40;;;26.90;37.10;;;;;;5054700;28;20210;-70
2021/10/26 11:39:11;;;;;;;9.13;5.57;;;26.30;37.40;;;;;;5091339;28;20717;-70
2021/10/26 11:41:40;;;;;;;9.75;6.38;;;25.70;39.10;;;;;;5080703;28;20650;-70
2021/10/26 11:44:09;;;;;;;8.65;6.13;;;25.60;39.20;;;;;;5074914;28;20254;-70
2021/10/26 11:46:38;;;;;;;9.88;6.22;;;25.60;38.90;;;;;;5093866;28;20200;-69
2021/10/26 11:49:08;;;;;;;9.48;6.38;;;25.30;38.80;;;;;;5092473;28;20200;-70
2021/10/26 11:51:38;;;;;;;11.38;6.03;;;24.80;38.80;;;;;;5080478;28;20197;-71
2021/10/26 11:54:12;;;;;;;8.02;6.43;;;24.20;39.50;;;;;;5088584;28;20220;-70
2021/10/26 11:56:41;;;;;;;11.40;6.32;;;23.50;40.10;;;;;;5093632;28;20230;-71
2021/10/26 11:59:12;;;;;;;13.75;6.78;;;22.80;41.00;;;;;;5089458;28;20207;-71
2021/10/26 12:01:46;;;;;;;9.13;6.28;;;22.20;42.50;;;;;;5082304;28;20714;-71
2021/10/26 12:04:18;;;;;;;11.02;6.82;;;21.80;42.50;;;;;;5086664;28;20224;-70
2021/10/26 12:06:46;;;;;;;8.95;6.13;;;21.30;43.40;;;;;;5092045;28;20280;-69
2021/10/26 12:09:16;;;;;;;8.65;6.32;;;21.00;43.90;;;;;;5089973;28;20295;-70
2021/10/26 12:11:46;;;;;;;15.15;6.82;;;20.60;44.30;;;;;;5092089;28;20532;-69
2021/10/26 12:14:18;;;;;;;12.50;7.18;;;20.20;45.50;;;;;;5084240;28;20232;-70
2021/10/26 12:17:05;;;;;;;8.52;6.22;;;19.80;45.70;;;;;;5092792;28;20315;-73
2021/10/26 12:19:33;;;;;;;8.98;6.25;;;19.30;46.10;;;;;;5094782;28;20674;-71
2021/10/26 12:22:00;;;;;;;7.50;5.93;;;18.90;46.80;;;;;;5082940;28;20204;-69
2021/10/26 12:24:31;;;;;;;9.43;5.80;;;18.70;47.90;;;;;;5081823;28;20600;-68
2021/10/26 12:27:00;;;;;;;9.45;5.80;;;18.50;48.10;;;;;;5083861;28;20630;-66
2021/10/26 12:29:29;;;;;;;9.52;6.20;;;18.30;48.80;;;;;;5093573;28;20201;-67
2021/10/26 12:31:57;;;;;;;10.77;6.72;;;18.20;49.10;;;;;;5088392;28;20205;-66
2021/10/26 12:34:24;;;;;;;10.43;6.55;;;18.00;49.10;;;;;;5084565;28;20887;-68
2021/10/26 12:36:52;;;;;;;11.70;6.80;;;17.40;49.10;;;;;;5088348;28;20203;-70
2021/10/26 12:39:25;;;;;;;10.03;6.10;;;18.00;49.90;;;;;;5081315;28;20673;-68
2021/10/26 12:41:53;;;;;;;11.13;6.07;;;17.80;50.10;;;;;;5077280;28;20205;-69
2021/10/26 12:44:23;;;;;;;10.73;6.30;;;17.70;50.50;;;;;;5087977;28;20641;-69
2021/10/26 12:47:03;;;;;;;8.33;6.13;;;17.50;50.70;;;;;;5093001;28;20208;-69
2021/10/26 12:49:36;;;;;;;12.23;6.50;;;17.30;51.10;;;;;;5091835;28;20322;-68
2021/10/26 12:52:14;;;;;;;10.93;6.33;;;17.20;51.60;;;;;;5091012;28;20240;-70